Pep, NM

9:44 PM MDT on May 24, 2015 (GMT -0600)
3MulesWinery | | Change Station
CLOSE
Current Station
Personal Weather Station
Location: Portales, NM
Elevation: 4032 ft
Nearby Weather Stations

Elev 4032 ft 34.12 °N, 103.33 °W | Updated 12 minutes ago

Partly Cloudy
Partly Cloudy
57.9 °F
Feels Like 57.9 °F
N
5.8
Wind Variable Wind from South

Today
High -- | Low -- °F
--% Chance of Precip.
Yesterday
High -- | Low -- °F
Precip. -- in
5:47 AM 7:53 PM
Waxing Crescent, 45% visible
Pressure 29.70 in
Visibility 10.0 miles
Clouds Clear
Dew Point 43 °F
Humidity 57%
Rainfall 0.00 in
Snow Depth Not available.
UV 0 out of 12
Pollen 5.50 out of 12
Air Quality Not available.
Flu Activity Local Activity
METAR KCVS 250258Z AUTO 17003KT 10SM CLR 17/07 A2983 RMK AO2 SLP058 T01730071 52009 $

More Conditions Fewer Conditions

Pressure 29.70 in
Visibility 10.0 miles
Clouds Clear
Dew Point 43 °F
Humidity 57%
Rainfall 0.00 in
Snow Depth Not available.
UV 0 out of 12
Pollen 5.50 out of 12
Air Quality Not available.
Flu Activity Local Activity
METAR KCVS 250258Z AUTO 17003KT 10SM CLR 17/07 A2983 RMK AO2 SLP058 T01730071 52009 $

More Conditions Fewer Conditions

10-Day Weather Forecast

Almanac

Astronomy

May. 24, 2015 Rise Set
Actual Time
Civil Twilight
Nautical Twilight
Astronomical Twilight
Moon
Length of Visible Light
Length of Day
Tomorrow will be .
, % of the Moon is Illuminated

Today's Extremes

State Highs State Lows

Community

WunderPhotos

Upload Photos

1,823,945 photos uploaded!

WunderBlogs® & News

Nearby

Air Quality

  Air Quality AQ Index Pollutant
Not available.

Snow Depth

Station Depth Elevation

Earthquake Activity

City Distance Mag. Time & Date
Minimum magnitude displayed is 2.5.

Coastal Water Temperatures

Place Temperature

Stations

Nearby Weather Stations

Station Location Temp. Windchill Dew Point Humidity Wind Precip. Elev Updated Type